岡山グライダークラブ活動状況掲示板

岡山グライダークラブ
岡山市浦安南町639-1 岡南飛行場
 使用機:シャイベ式 SF25C型 ファルケ   JA2330
      ヴァレンティン式17E型 タイフーン  JA2342
 練習日:毎日曜日  クラブルーム:電話 086-265-1810
この掲示板は岡山グライダークラブの活動状況をお知らせする掲示板です。
!!!この掲示板は投稿規制をしています。!!!
クラブ関連各種情報は 岡山グライダークラブクラブルーム      を       .
  ブリーフイング情報は  岡山グライダークラブブリーフィングルーム  をご覧下さい。 .
※写真はクリックすると拡大して見ることが出来ます。
岡南飛行場へのアクセス等は 岡南飛行場管理事務所 をご覧ください。
クラブの ホームページ ができました。

!!!緊急事態宣言、まん延防止等重点措置の解除に伴い、見学者等の受入を再開します。なお、来所の際には、こちらを順守願います。

 
10月02日
by OGC at 2021/10/2(土) 21:57:55 No.20211002213654  削除コメント
1024 x 768 x 68,777バイト
No.1

10月02日
本日の参加者
  会員        6名
  その他      0名


@本日の様子






METAR
RJBK 020000Z 20003KT 160V240 30KM SKC 21/17 Q1013 A2993
RJOB 020000Z 26004KT 230V310 9999 FEW020 21/16 Q1013
RJOT 020000Z 28007KT 9999 FEW025 23/17 Q1014
RJOA 020000Z 27003KT 220V310 9999 FEW020 21/16 Q1014
TAF
RJOB 012305Z 0200/0306 22008KT 9999 FEW030 SCT045
       BECMG 0209/0211 36005KT
RJOT 012305Z 0200/0306 29009KT 9999 FEW035
       BECMG 0215/0218 15006KT
RJOA 012305Z 0200/0306 20005KT 9999 FEW030
       BECMG 0300/0303 14004KT

本日の天候は快晴、気温も涼しくなり、訓練の季節到来。
訓練生は、岡山空港へ行って来たり、滑空の訓練をしたりしていたようです。



解散    18:00

1番機  10:50離陸 撤収機  17:25着陸 

SF25C JA2330 ファルケ     07Flt.4h00min  
17E   JA2342 タイフーン    00Flt.0h00min
合計                    07Flt.4h00min

    << 戻る || ホームページ || 最新の掲示板へ